Time;durP1;ratioP1;P1;durP2;ratioP2;P2;SDS_P1;SDS_P2;PMS_P1;PMS_P2;Temp;Humidity;BMP_temperature;BMP_pressure;BME280_temperature;BME280_humidity;BME280_pressure;Samples;Min_cycle;Max_cycle;Signal;HPM_P1;HPM_P2
2023/10/06 00:00:47;;;;;;;9.07;4.18;;;;;;;13.88;90.01;99505.37;4468600;32;20089;-79
2023/10/06 00:03:16;;;;;;;6.03;2.75;;;;;;;13.81;90.13;99509.56;4467663;32;20460;-79
2023/10/06 00:05:50;;;;;;;8.63;3.05;;;;;;;13.80;90.01;99507.91;4468429;32;20092;-79
2023/10/06 00:08:17;;;;;;;8.10;3.58;;;;;;;13.73;90.11;99504.16;4468768;32;20131;-79
2023/10/06 00:10:51;;;;;;;6.40;3.12;;;;;;;13.62;90.39;99505.94;4468233;32;20610;-79
2023/10/06 00:13:29;;;;;;;6.15;2.37;;;;;;;13.55;90.00;99514.53;4468768;32;20085;-79
2023/10/06 00:15:56;;;;;;;8.70;3.37;;;;;;;13.58;89.70;99512.47;4474392;32;20147;-79
2023/10/06 00:18:27;;;;;;;6.40;2.80;;;;;;;13.52;89.92;99520.94;4484027;31;20088;-79
2023/10/06 00:21:04;;;;;;;6.00;2.20;;;;;;;13.46;89.82;99518.84;4483931;31;20516;-79
2023/10/06 00:23:38;;;;;;;6.05;2.45;;;;;;;13.46;89.53;99514.41;4483951;31;20106;-79
2023/10/06 00:26:10;;;;;;;6.32;2.37;;;;;;;13.44;88.88;99519.00;4483938;32;20100;-79
2023/10/06 00:28:39;;;;;;;10.57;2.50;;;;;;;13.41;88.74;99519.22;4483931;31;20092;-79
2023/10/06 00:31:08;;;;;;;7.97;2.75;;;;;;;13.40;88.35;99522.00;4483788;31;20610;-79
2023/10/06 00:33:41;;;;;;;7.97;2.62;;;;;;;13.45;88.08;99525.06;4483860;31;20096;-79
2023/10/06 00:36:15;;;;;;;5.30;2.27;;;;;;;13.47;87.91;99526.63;4483714;32;20141;-79
2023/10/06 00:38:50;;;;;;;10.10;2.62;;;;;;;13.43;87.88;99521.72;4483915;31;20080;-79
2023/10/06 00:41:20;;;;;;;6.05;3.00;;;;;;;13.34;88.30;99530.44;4483619;31;20111;-79
2023/10/06 00:43:49;;;;;;;6.50;2.72;;;;;;;13.32;88.17;99535.81;4483469;32;20107;-79
2023/10/06 00:46:18;;;;;;;8.20;3.33;;;;;;;13.26;88.32;99531.94;4483628;32;20159;-79
2023/10/06 00:48:53;;;;;;;5.50;1.90;;;;;;;13.32;88.01;99536.66;4483454;31;20097;-79
2023/10/06 00:51:23;;;;;;;5.40;2.40;;;;;;;13.28;88.37;99530.00;4483776;31;20108;-79
2023/10/06 00:53:51;;;;;;;6.45;2.72;;;;;;;13.19;88.88;99536.09;4474404;32;20097;-79
2023/10/06 00:56:23;;;;;;;7.65;3.28;;;;;;;13.18;89.37;99529.16;4467938;32;20093;-79
2023/10/06 00:58:52;;;;;;;7.43;2.50;;;;;;;13.18;89.83;99526.50;4467740;32;20111;-79
2023/10/06 01:01:19;;;;;;;8.45;2.85;;;;;;;13.10;90.61;99526.38;4467619;32;20089;-79
2023/10/06 01:04:06;;;;;;;7.05;2.60;;;;;;;13.04;91.58;99521.66;4467619;32;20470;-79
2023/10/06 01:06:39;;;;;;;7.50;2.87;;;;;;;13.01;91.86;99525.38;4467709;32;20080;-79
2023/10/06 01:09:16;;;;;;;5.47;2.20;;;;;;;12.98;91.54;99522.19;4467658;32;20110;-79
2023/10/06 01:11:46;;;;;;;10.23;2.83;;;;;;;12.83;91.83;99521.72;4467738;32;20449;-79
2023/10/06 01:14:26;;;;;;;8.77;2.80;;;;;;;12.83;91.45;99517.28;4467619;32;20085;-79
2023/10/06 01:19:49;;;;;;;8.77;2.60;;;;;;;12.81;91.17;99516.59;4485425;31;20076;-79
2023/10/06 01:22:29;;;;;;;8.75;2.78;;;;;;;12.88;90.83;99517.69;4485705;32;20157;-79
2023/10/06 01:24:59;;;;;;;6.10;2.47;;;;;;;12.80;91.07;99507.03;4485536;31;20148;-79
2023/10/06 01:27:26;;;;;;;6.47;2.35;;;;;;;12.77;91.16;99512.56;4486034;31;20088;-79
2023/10/06 01:32:43;;;;;;;8.02;2.55;;;;;;;12.81;90.39;99523.63;4485587;31;20096;-79
2023/10/06 01:35:13;;;;;;;7.03;2.55;;;;;;;12.81;90.49;99526.25;4485289;31;20160;-79
2023/10/06 01:37:43;;;;;;;10.98;3.37;;;;;;;12.82;90.65;99534.00;4485566;31;20442;-79
2023/10/06 01:40:43;;;;;;;8.70;2.83;;;;;;;12.82;90.61;99538.44;4485558;31;20164;-79
2023/10/06 01:43:09;;;;;;;10.68;2.97;;;;;;;12.80;90.56;99540.38;4485474;32;20119;-79
2023/10/06 01:45:43;;;;;;;8.90;2.93;;;;;;;12.85;90.35;99532.94;4485480;31;20085;-79
2023/10/06 01:50:41;;;;;;;6.40;3.08;;;;;;;12.67;91.00;99541.44;4485304;31;20118;-79
2023/10/06 01:53:18;;;;;;;7.40;2.97;;;;;;;12.63;91.35;99541.81;4482110;31;20473;-79
2023/10/06 01:55:52;;;;;;;7.25;2.67;;;;;;;12.52;91.98;99548.84;4469475;32;20112;-79
2023/10/06 01:58:20;;;;;;;11.38;3.30;;;;;;;12.48;92.57;99536.91;4469778;32;20154;-79
2023/10/06 02:00:48;;;;;;;7.43;2.95;;;;;;;12.38;93.11;99542.13;4469510;32;20102;-79
2023/10/06 02:03:21;;;;;;;9.68;2.58;;;;;;;12.41;92.90;99547.12;4469659;32;20410;-79
2023/10/06 02:05:54;;;;;;;9.23;3.03;;;;;;;12.35;93.28;99554.69;4469483;32;20541;-79
2023/10/06 02:08:23;;;;;;;9.00;3.30;;;;;;;12.25;93.60;99542.31;4469825;32;20147;-79
2023/10/06 02:10:50;;;;;;;9.80;2.35;;;;;;;12.25;93.62;99549.38;4469405;32;20119;-79
2023/10/06 02:13:21;;;;;;;9.88;3.37;;;;;;;12.27;93.36;99555.31;4469435;32;20192;-79
2023/10/06 02:15:59;;;;;;;11.88;2.40;;;;;;;12.27;93.39;99551.87;4474977;32;20088;-79
2023/10/06 02:18:36;;;;;;;6.57;3.10;;;;;;;12.33;93.02;99562.69;4485208;31;20116;-79
2023/10/06 02:21:22;;;;;;;8.38;2.60;;;;;;;12.22;93.28;99562.78;4485165;32;20111;-79
2023/10/06 02:23:51;;;;;;;9.38;2.83;;;;;;;12.22;93.15;99563.59;4485365;31;20085;-79
2023/10/06 02:26:18;;;;;;;5.90;2.67;;;;;;;12.30;92.68;99567.37;4484569;31;20112;-79
2023/10/06 02:28:48;;;;;;;6.20;2.40;;;;;;;12.32;92.39;99565.44;4485134;31;20096;-79
2023/10/06 02:31:21;;;;;;;6.93;3.03;;;;;;;12.28;92.68;99562.25;4485054;31;20084;-79
2023/10/06 02:33:49;;;;;;;8.60;3.23;;;;;;;12.22;93.00;99560.97;4485114;31;20402;-79
2023/10/06 02:36:22;;;;;;;10.60;2.97;;;;;;;12.14;93.40;99554.69;4484991;31;20188;-79
2023/10/06 02:38:51;;;;;;;10.32;3.25;;;;;;;12.13;93.46;99553.03;4485029;31;20076;-79
2023/10/06 02:41:21;;;;;;;9.73;3.00;;;;;;;12.05;94.04;99559.75;4484971;31;20092;-79
2023/10/06 02:43:49;;;;;;;11.40;2.80;;;;;;;12.05;94.15;99564.16;4485026;31;20092;-79
2023/10/06 02:46:21;;;;;;;8.60;3.47;;;;;;;12.00;94.47;99563.72;4484995;31;20119;-79
2023/10/06 02:48:51;;;;;;;6.53;3.00;;;;;;;11.99;94.60;99569.91;4485328;31;20426;-79
2023/10/06 02:51:32;;;;;;;9.38;3.12;;;;;;;12.01;94.40;99570.62;4485013;31;20088;-79
2023/10/06 02:54:12;;;;;;;6.28;2.97;;;;;;;11.98;94.61;99571.72;4476074;31;20081;-79
2023/10/06 02:56:41;;;;;;;7.72;2.85;;;;;;;11.97;94.54;99574.47;4469296;32;20061;-79
2023/10/06 02:59:21;;;;;;;6.45;2.55;;;;;;;12.00;94.45;99572.41;4469249;32;20927;-79
2023/10/06 03:02:06;;;;;;;6.62;2.92;;;;;;;11.95;94.53;99574.59;4469166;32;20089;-79
2023/10/06 03:04:39;;;;;;;9.75;3.05;;;;;;;11.87;95.07;99579.63;4469046;32;20111;-79
2023/10/06 03:07:14;;;;;;;8.85;2.72;;;;;;;11.84;95.07;99575.44;4469312;32;20081;-79
2023/10/06 03:09:46;;;;;;;7.43;2.55;;;;;;;11.88;94.92;99576.88;4469643;32;20116;-79
2023/10/06 03:12:20;;;;;;;11.07;3.03;;;;;;;11.88;94.97;99571.63;4469572;32;20112;-79
2023/10/06 03:14:48;;;;;;;6.43;2.33;;;;;;;11.89;94.90;99575.88;4469120;32;20557;-79
2023/10/06 03:17:19;;;;;;;9.02;3.00;;;;;;;11.89;94.96;99569.81;4484186;32;20453;-79
2023/10/06 03:22:48;;;;;;;9.27;3.55;;;;;;;11.96;94.59;99563.12;4435660;32;20163;-79
2023/10/06 03:25:17;;;;;;;9.88;2.95;;;;;;;11.89;95.10;99562.75;4435505;32;20454;-79
2023/10/06 03:27:49;;;;;;;11.68;3.17;;;;;;;11.81;95.80;99569.59;4435548;32;20121;-79
2023/10/06 03:30:33;;;;;;;7.45;2.58;;;;;;;11.79;95.84;99564.47;4435806;32;20179;-79
2023/10/06 03:33:03;;;;;;;8.93;3.12;;;;;;;11.83;95.65;99567.69;4435527;32;20123;-79
2023/10/06 03:35:45;;;;;;;7.35;2.50;;;;;;;11.84;95.58;99562.31;4435274;32;20121;-79
2023/10/06 03:43:33;;;;;;;14.85;3.10;;;;;;;11.89;95.25;99554.06;4435347;32;20148;-79
2023/10/06 03:46:00;;;;;;;6.37;2.67;;;;;;;11.87;95.41;99562.06;4435349;32;20098;-79
2023/10/06 03:48:29;;;;;;;15.05;3.58;;;;;;;11.84;95.85;99557.06;4435549;32;20112;-79
2023/10/06 03:50:57;;;;;;;6.07;2.85;;;;;;;11.85;95.85;99563.12;4435089;32;20623;-79
2023/10/06 03:53:28;;;;;;;8.20;2.80;;;;;;;11.90;95.62;99568.88;4435163;32;20120;-79
2023/10/06 03:55:57;;;;;;;10.10;3.42;;;;;;;11.90;95.79;99559.19;4435100;32;20121;-79
2023/10/06 03:58:28;;;;;;;8.95;2.72;;;;;;;11.94;95.82;99569.47;4440283;32;20543;-79
2023/10/06 04:00:56;;;;;;;9.88;3.83;;;;;;;11.90;96.42;99571.50;4468908;32;20207;-79
2023/10/06 04:03:24;;;;;;;13.32;3.75;;;;;;;11.98;96.03;99565.63;4468640;32;20101;-78
2023/10/06 04:05:53;;;;;;;8.85;3.30;;;;;;;12.09;95.39;99570.00;4466936;32;20107;-78
2023/10/06 04:08:22;;;;;;;7.32;3.62;;;;;;;11.93;95.95;99573.91;4466833;32;20173;-78
2023/10/06 04:10:54;;;;;;;7.72;3.20;;;;;;;11.93;95.80;99584.41;4467743;32;20073;-78
2023/10/06 04:13:25;;;;;;;12.00;3.80;;;;;;;11.93;95.93;99584.41;4468299;32;20152;-77
2023/10/06 04:15:53;;;;;;;9.13;3.40;;;;;;;11.89;96.12;99578.50;4474083;32;20092;-79
2023/10/06 04:18:23;;;;;;;8.75;4.90;;;;;;;11.87;96.26;99577.00;4483130;31;20157;-77
2023/10/06 04:20:53;;;;;;;10.77;3.47;;;;;;;11.88;96.15;99573.38;4482248;31;20096;-77
2023/10/06 04:23:24;;;;;;;8.60;3.25;;;;;;;11.87;96.55;99575.19;4482515;31;20455;-77
2023/10/06 04:25:56;;;;;;;9.45;3.53;;;;;;;11.92;96.37;99579.25;4481404;31;20351;-77
2023/10/06 04:28:29;;;;;;;11.38;3.60;;;;;;;11.87;96.42;99580.44;4481852;31;20410;-79
2023/10/06 04:31:01;;;;;;;9.80;3.40;;;;;;;11.92;96.31;99581.87;4481756;31;20122;-80
2023/10/06 04:33:29;;;;;;;9.60;3.72;;;;;;;11.90;96.47;99585.44;4482957;31;20092;-79
2023/10/06 04:35:59;;;;;;;8.43;3.53;;;;;;;11.95;95.92;99581.66;4483475;31;20153;-80
2023/10/06 04:38:29;;;;;;;7.50;2.95;;;;;;;11.95;95.90;99582.47;4483502;31;20115;-81
2023/10/06 04:40:57;;;;;;;6.72;3.75;;;;;;;12.00;95.85;99589.97;4482881;31;20165;-80
2023/10/06 04:43:26;;;;;;;14.85;4.12;;;;;;;11.94;96.00;99585.22;4483070;31;20155;-79
2023/10/06 04:45:55;;;;;;;10.93;4.07;;;;;;;11.85;96.79;99587.63;4482252;31;20915;-79
2023/10/06 04:48:23;;;;;;;8.57;3.70;;;;;;;11.94;96.53;99593.91;4483183;32;20084;-79
2023/10/06 04:50:51;;;;;;;9.85;3.72;;;;;;;11.88;96.71;99587.38;4483819;31;20179;-79
2023/10/06 04:53:19;;;;;;;7.15;3.42;;;;;;;11.76;97.04;99590.97;4483916;31;20104;-79
2023/10/06 04:55:47;;;;;;;6.10;3.17;;;;;;;11.82;96.94;99595.72;4484207;32;20147;-79
2023/10/06 04:58:15;;;;;;;12.68;3.47;;;;;;;11.83;97.14;99584.25;4485678;31;20145;-81
2023/10/06 05:00:49;;;;;;;8.18;3.67;;;;;;;11.75;97.10;99591.09;4483601;31;20480;-80
2023/10/06 05:03:17;;;;;;;8.63;4.22;;;;;;;11.74;97.10;99595.50;4485940;31;20080;-81
2023/10/06 05:05:46;;;;;;;11.25;3.25;;;;;;;11.78;97.17;99596.09;4487004;31;20111;-80
2023/10/06 05:08:17;;;;;;;8.13;3.33;;;;;;;11.79;96.87;99601.22;4489648;31;20115;-80
2023/10/06 05:10:46;;;;;;;9.57;3.28;;;;;;;11.83;97.08;99602.66;4480793;31;20127;-80
2023/10/06 05:13:14;;;;;;;9.60;3.37;;;;;;;11.71;97.38;99606.25;4482970;31;20135;-79
2023/10/06 05:15:42;;;;;;;8.00;3.62;;;;;;;11.80;97.37;99602.91;4478936;31;20126;-81
2023/10/06 05:18:16;;;;;;;10.77;3.62;;;;;;;11.86;97.25;99609.44;4478087;31;20101;-80
2023/10/06 05:20:46;;;;;;;7.43;3.33;;;;;;;11.87;97.39;99606.69;4483011;31;20507;-80
2023/10/06 05:23:17;;;;;;;9.15;3.30;;;;;;;11.73;98.33;99614.84;4483970;31;20100;-80
2023/10/06 05:25:46;;;;;;;11.50;3.47;;;;;;;11.72;98.24;99610.56;4478334;32;20148;-78
2023/10/06 05:28:17;;;;;;;13.75;3.17;;;;;;;11.71;98.39;99617.59;4478456;32;20447;-80
2023/10/06 05:30:45;;;;;;;9.38;3.20;;;;;;;11.69;98.63;99622.13;4478641;32;20469;-79
2023/10/06 05:33:14;;;;;;;9.93;3.85;;;;;;;11.74;98.39;99627.03;4478516;31;20100;-78
2023/10/06 05:35:43;;;;;;;9.27;3.12;;;;;;;11.74;97.98;99624.41;4477546;32;20085;-78
2023/10/06 05:38:16;;;;;;;11.00;3.33;;;;;;;11.78;97.66;99640.72;4477829;31;20080;-81
2023/10/06 05:40:49;;;;;;;10.13;3.83;;;;;;;11.83;97.05;99639.41;4478547;31;20112;-78
2023/10/06 05:43:17;;;;;;;7.15;3.22;;;;;;;11.90;96.54;99640.59;4484018;31;20479;-79
2023/10/06 05:45:51;;;;;;;10.07;3.33;;;;;;;12.01;96.08;99639.72;4477251;32;20092;-79
2023/10/06 05:48:25;;;;;;;20.08;3.22;;;;;;;12.04;95.48;99643.91;4476028;31;20109;-82
2023/10/06 05:51:01;;;;;;;10.82;3.92;;;;;;;11.96;96.14;99643.69;4476659;32;20434;-77
2023/10/06 05:53:34;;;;;;;11.68;3.25;;;;;;;12.14;95.48;99649.25;4475909;31;20128;-79
2023/10/06 05:56:03;;;;;;;13.75;3.70;;;;;;;12.14;95.23;99662.38;4475522;32;20096;-79
2023/10/06 05:58:37;;;;;;;8.52;3.78;;;;;;;12.14;95.17;99665.84;4475185;32;20089;-79
2023/10/06 06:01:06;;;;;;;8.23;3.85;;;;;;;12.20;94.73;99659.25;4475597;31;20097;-78
2023/10/06 06:03:35;;;;;;;6.43;2.50;;;;;;;12.25;94.64;99657.91;4476831;32;20096;-79
2023/10/06 06:06:08;;;;;;;8.70;2.97;;;;;;;12.35;94.41;99662.41;4475001;32;20114;-77
2023/10/06 06:08:39;;;;;;;13.00;3.05;;;;;;;12.43;93.71;99665.25;4478344;32;20116;-78
2023/10/06 06:11:07;;;;;;;7.82;2.50;;;;;;;12.41;93.34;99669.78;4479310;32;20096;-76
2023/10/06 06:13:38;;;;;;;6.35;2.65;;;;;;;12.38;93.86;99662.16;4482019;32;20104;-79
2023/10/06 06:16:06;;;;;;;7.75;2.85;;;;;;;12.34;94.00;99668.63;4477403;31;20555;-79
2023/10/06 06:18:34;;;;;;;11.55;3.60;;;;;;;12.41;93.90;99672.41;4482130;31;20174;-77
2023/10/06 06:21:02;;;;;;;14.13;3.42;;;;;;;12.27;94.63;99677.97;4475257;31;20212;-78
2023/10/06 06:23:33;;;;;;;8.48;2.60;;;;;;;12.36;94.35;99679.84;4479482;32;20092;-81
2023/10/06 06:26:02;;;;;;;11.43;3.30;;;;;;;12.34;94.95;99690.50;4466421;31;20092;-80
2023/10/06 06:28:30;;;;;;;7.82;2.62;;;;;;;12.39;94.47;99692.75;4466858;32;20660;-78
2023/10/06 06:31:04;;;;;;;7.55;2.60;;;;;;;12.45;94.26;99694.84;4468498;32;20109;-79
2023/10/06 06:33:32;;;;;;;8.40;3.40;;;;;;;12.43;94.09;99684.47;4477060;32;20096;-77
2023/10/06 06:36:01;;;;;;;11.10;3.30;;;;;;;12.42;94.07;99680.16;4472547;32;20131;-77
2023/10/06 06:38:29;;;;;;;9.02;3.10;;;;;;;12.47;94.20;99690.31;4470124;31;20500;-79
2023/10/06 06:40:59;;;;;;;7.93;2.85;;;;;;;12.69;93.60;99702.50;4469294;31;20379;-79
2023/10/06 06:43:29;;;;;;;8.45;2.83;;;;;;;12.64;93.43;99702.03;4468400;32;20556;-82
2023/10/06 06:45:58;;;;;;;8.27;3.47;;;;;;;12.75;93.12;99706.44;4473789;31;20165;-80
2023/10/06 06:48:26;;;;;;;8.25;3.17;;;;;;;12.85;92.41;99706.47;4467897;32;20085;-80
2023/10/06 06:50:56;;;;;;;12.90;3.92;;;;;;;12.98;90.93;99711.56;4470702;32;20100;-80
2023/10/06 06:53:23;;;;;;;10.63;2.85;;;;;;;13.19;90.31;99714.19;4470512;32;20597;-81
2023/10/06 06:55:51;;;;;;;6.53;2.72;;;;;;;13.13;89.71;99710.25;4468716;32;20100;-84
2023/10/06 06:58:21;;;;;;;11.77;3.33;;;;;;;12.98;90.55;99711.56;4467667;32;20151;-86
2023/10/06 07:00:48;;;;;;;10.00;3.40;;;;;;;12.98;90.67;99715.00;4470327;32;21388;-82
2023/10/06 07:03:19;;;;;;;9.77;3.90;;;;;;;13.03;90.87;99715.44;4474028;32;20450;-82
2023/10/06 07:05:47;;;;;;;9.80;3.45;;;;;;;13.13;90.52;99726.03;4475905;32;20126;-83
2023/10/06 07:08:15;;;;;;;9.38;3.35;;;;;;;13.26;89.93;99723.19;4475147;32;20096;-81
2023/10/06 07:11:04;;;;;;;8.85;3.42;;;;;;;13.24;89.44;99706.72;4473988;32;20104;-82
2023/10/06 07:13:31;;;;;;;8.23;3.10;;;;;;;13.22;89.32;99719.16;4470647;32;20756;-82
2023/10/06 07:15:59;;;;;;;9.75;2.95;;;;;;;13.48;88.66;99730.94;4473339;31;20167;-81
2023/10/06 07:18:26;;;;;;;9.18;3.33;;;;;;;13.64;87.80;99724.34;4472441;32;20088;-80
2023/10/06 07:20:54;;;;;;;6.05;3.42;;;;;;;13.87;86.97;99730.25;4473603;31;20104;-82
2023/10/06 07:23:23;;;;;;;7.18;2.33;;;;;;;13.99;85.82;99734.44;4470762;32;20165;-82
2023/10/06 07:25:51;;;;;;;7.78;2.83;;;;;;;14.40;84.42;99736.16;4472708;32;20097;-80
2023/10/06 07:28:19;;;;;;;9.10;3.00;;;;;;;14.58;82.62;99734.50;4468740;32;20096;-81
2023/10/06 07:30:46;;;;;;;11.00;3.25;;;;;;;14.86;81.91;99742.56;4471621;32;20143;-80
2023/10/06 07:33:14;;;;;;;7.80;2.72;;;;;;;15.07;80.49;99745.88;4470738;32;20612;-82
2023/10/06 07:35:51;;;;;;;8.77;2.70;;;;;;;15.13;79.98;99743.66;4472072;32;20135;-81
2023/10/06 07:38:19;;;;;;;7.20;2.62;;;;;;;15.34;79.46;99754.03;4470587;32;20152;-82
2023/10/06 07:40:48;;;;;;;11.20;3.17;;;;;;;15.62;78.55;99749.59;4475106;32;20472;-80
2023/10/06 07:43:18;;;;;;;6.45;2.50;;;;;;;15.84;77.99;99753.69;4469771;32;20108;-81
2023/10/06 07:45:46;;;;;;;8.98;3.03;;;;;;;15.89;77.24;99761.19;4470072;31;20110;-82
2023/10/06 07:48:14;;;;;;;7.70;3.25;;;;;;;15.89;76.79;99755.91;4469613;32;20108;-82
2023/10/06 07:50:42;;;;;;;8.13;3.17;;;;;;;15.82;76.63;99760.97;4473746;31;20464;-80
2023/10/06 07:53:10;;;;;;;11.02;2.80;;;;;;;15.93;76.90;99752.00;4473577;32;20454;-81
2023/10/06 07:55:40;;;;;;;7.75;2.90;;;;;;;15.95;75.71;99760.59;4474341;31;20150;-85
2023/10/06 07:58:08;;;;;;;7.22;2.60;;;;;;;16.12;75.72;99767.75;4472789;32;20100;-81
2023/10/06 08:00:38;;;;;;;10.75;4.03;;;;;;;16.19;75.73;99769.78;4472874;32;20150;-83
2023/10/06 08:03:07;;;;;;;7.45;3.00;;;;;;;16.19;74.81;99760.03;4471295;31;20101;-83
2023/10/06 08:05:38;;;;;;;9.35;2.35;;;;;;;16.07;74.21;99772.63;4471438;31;20871;-84
2023/10/06 08:08:05;;;;;;;11.05;3.12;;;;;;;16.30;72.78;99775.69;4474132;31;20107;-83
2023/10/06 08:10:33;;;;;;;7.75;2.62;;;;;;;16.42;73.17;99778.13;4468830;32;20468;-83
2023/10/06 08:13:01;;;;;;;6.72;2.47;;;;;;;16.54;72.62;99779.56;4474131;32;20611;-83
2023/10/06 08:15:32;;;;;;;7.22;3.05;;;;;;;16.71;72.00;99783.19;4474984;32;20447;-82
2023/10/06 08:18:01;;;;;;;5.72;2.70;;;;;;;16.79;72.52;99785.91;4472539;32;20126;-83
2023/10/06 08:20:30;;;;;;;8.02;3.10;;;;;;;16.79;72.17;99791.22;4471012;31;20735;-82
2023/10/06 08:22:59;;;;;;;8.98;3.20;;;;;;;16.96;70.52;99786.09;4472588;31;20092;-79
2023/10/06 08:25:26;;;;;;;9.63;2.50;;;;;;;17.06;71.20;99786.81;4475745;31;20122;-80
2023/10/06 08:27:56;;;;;;;5.10;2.03;;;;;;;17.12;70.22;99794.16;4476231;31;20145;-81
2023/10/06 08:30:26;;;;;;;6.35;3.30;;;;;;;17.17;69.96;99794.53;4477682;31;20162;-82
2023/10/06 08:32:56;;;;;;;5.37;2.80;;;;;;;17.28;68.95;99792.63;4478294;31;20130;-81
2023/10/06 08:35:24;;;;;;;7.70;2.60;;;;;;;17.43;69.08;99788.41;4474791;31;20089;-81
2023/10/06 08:37:52;;;;;;;4.78;2.25;;;;;;;17.47;68.07;99796.84;4470655;32;20097;-80
2023/10/06 08:40:22;;;;;;;10.27;2.92;;;;;;;17.48;69.04;99801.19;4472848;31;20196;-80
2023/10/06 08:42:53;;;;;;;7.50;2.45;;;;;;;17.54;69.51;99796.06;4477467;31;20367;-80
2023/10/06 08:45:24;;;;;;;8.27;2.75;;;;;;;17.57;69.60;99794.94;4474707;32;20108;-81
2023/10/06 08:47:59;;;;;;;5.97;3.05;;;;;;;17.63;68.05;99799.59;4475065;32;20164;-81
2023/10/06 08:50:32;;;;;;;9.15;3.05;;;;;;;17.69;67.46;99798.97;4474301;32;20127;-81
2023/10/06 08:53:05;;;;;;;7.10;2.62;;;;;;;17.81;67.50;99802.19;4471960;31;20096;-80
2023/10/06 08:55:36;;;;;;;8.65;3.03;;;;;;;17.85;67.97;99798.22;4474615;31;20137;-81
2023/10/06 08:58:04;;;;;;;9.77;3.22;;;;;;;18.09;67.41;99808.13;4473010;31;20183;-81
2023/10/06 09:00:35;;;;;;;5.07;2.53;;;;;;;18.29;64.60;99804.38;4467851;32;20100;-81
2023/10/06 09:03:14;;;;;;;5.45;2.75;;;;;;;18.26;64.17;99806.38;4470645;32;20105;-81
2023/10/06 09:05:44;;;;;;;7.53;3.15;;;;;;;18.39;63.89;99805.06;4470770;32;20486;-80
2023/10/06 09:08:14;;;;;;;6.87;3.42;;;;;;;18.38;65.26;99803.41;4470949;31;20149;-81
2023/10/06 09:10:50;;;;;;;5.37;2.90;;;;;;;18.31;64.57;99808.53;4469518;32;20461;-81
2023/10/06 09:13:20;;;;;;;8.00;3.20;;;;;;;18.55;65.03;99805.09;4471042;32;20096;-81
2023/10/06 09:15:55;;;;;;;11.10;3.03;;;;;;;18.68;64.91;99806.44;4473792;31;20143;-81
2023/10/06 09:18:27;;;;;;;6.97;2.75;;;;;;;18.73;63.42;99806.81;4474175;32;20145;-81
2023/10/06 09:21:00;;;;;;;6.62;2.80;;;;;;;18.61;63.00;99799.12;4470301;31;20704;-81
2023/10/06 09:23:34;;;;;;;8.82;3.28;;;;;;;18.78;62.24;99812.44;4474274;32;20112;-81
2023/10/06 09:26:03;;;;;;;12.48;3.00;;;;;;;18.84;62.78;99806.47;4477258;32;20088;-81
2023/10/06 09:28:36;;;;;;;8.60;3.22;;;;;;;18.89;62.15;99809.47;4475952;31;20088;-81
2023/10/06 09:31:05;;;;;;;8.57;3.00;;;;;;;19.28;61.37;99800.00;4473122;32;20271;-81
2023/10/06 09:33:36;;;;;;;9.15;2.75;;;;;;;19.06;60.73;99806.81;4474540;31;20092;-81
2023/10/06 09:36:08;;;;;;;6.10;2.70;;;;;;;19.03;59.23;99801.84;4469067;31;20126;-81
2023/10/06 09:38:37;;;;;;;10.30;3.28;;;;;;;19.15;58.34;99800.50;4474764;32;20080;-81
2023/10/06 09:41:07;;;;;;;8.05;3.40;;;;;;;19.42;58.22;99790.50;4473187;31;20977;-80
2023/10/06 09:43:38;;;;;;;8.48;2.72;;;;;;;19.59;58.47;99791.28;4475069;31;20097;-81
2023/10/06 09:46:13;;;;;;;7.90;3.22;;;;;;;19.66;58.00;99787.78;4476415;31;20108;-81
2023/10/06 09:48:46;;;;;;;10.02;2.80;;;;;;;19.55;57.60;99790.00;4475199;31;20152;-81
2023/10/06 09:51:19;;;;;;;9.35;3.28;;;;;;;19.55;58.92;99780.19;4472804;31;20127;-83
2023/10/06 09:53:47;;;;;;;6.00;3.33;;;;;;;19.71;58.29;99784.59;4474154;32;20104;-80
2023/10/06 09:56:17;;;;;;;9.57;2.33;;;;;;;19.72;57.38;99780.97;4474359;31;20100;-79
2023/10/06 09:58:49;;;;;;;9.35;2.62;;;;;;;19.92;57.28;99775.25;4476293;31;20145;-79
2023/10/06 10:01:20;;;;;;;5.15;2.47;;;;;;;19.78;56.58;99779.47;4473660;31;20445;-79
2023/10/06 10:03:54;;;;;;;5.62;2.08;;;;;;;20.01;55.38;99768.91;4474321;31;20457;-79
2023/10/06 10:06:22;;;;;;;8.65;2.53;;;;;;;20.23;53.90;99772.63;4473795;32;20126;-80
2023/10/06 10:08:53;;;;;;;8.65;2.60;;;;;;;20.37;54.09;99771.03;4471314;31;20124;-82
2023/10/06 10:11:39;;;;;;;6.75;2.53;;;;;;;20.27;53.53;99768.59;4475891;31;20108;-81
2023/10/06 10:14:32;;;;;;;5.87;2.55;;;;;;;20.52;54.42;99779.91;4489624;31;20132;-81
2023/10/06 10:17:13;;;;;;;7.43;2.40;;;;;;;20.45;53.21;99770.97;4478119;32;20151;-81
2023/10/06 10:19:43;;;;;;;7.68;2.10;;;;;;;20.39;51.76;99764.53;4474532;32;20102;-81
2023/10/06 10:22:13;;;;;;;53.47;4.15;;;;;;;20.65;51.90;99757.19;4475866;32;20155;-83
2023/10/06 10:24:43;;;;;;;25.00;2.80;;;;;;;20.58;51.63;99748.28;4478905;31;20109;-82
2023/10/06 10:27:33;;;;;;;14.50;2.40;;;;;;;21.13;49.86;99736.50;4477956;32;20530;-82
2023/10/06 10:30:08;;;;;;;35.60;3.12;;;;;;;21.37;51.44;99732.75;4476175;32;20088;-82
2023/10/06 10:32:41;;;;;;;17.12;2.97;;;;;;;21.64;50.33;99733.13;4476938;32;20181;-83
2023/10/06 10:35:14;;;;;;;7.35;2.37;;;;;;;21.85;48.59;99735.03;4473806;32;20092;-84
2023/10/06 10:37:55;;;;;;;9.23;2.30;;;;;;;21.70;47.46;99729.72;4482334;32;20148;-85
2023/10/06 10:40:27;;;;;;;33.38;3.78;;;;;;;22.03;49.12;99723.12;4481885;31;20112;-83
2023/10/06 10:43:05;;;;;;;12.60;2.50;;;;;;;22.05;45.31;99729.94;4481813;31;20097;-84
2023/10/06 10:45:34;;;;;;;8.38;1.92;;;;;;;21.96;46.18;99726.53;4480166;31;20088;-81
2023/10/06 10:48:05;;;;;;;3.70;1.77;;;;;;;21.38;48.50;99723.75;4483258;31;20126;-80
2023/10/06 10:50:55;;;;;;;8.63;2.10;;;;;;;20.93;49.65;99720.22;4483476;31;20567;-80
2023/10/06 10:53:47;;;;;;;7.60;2.08;;;;;;;20.90;49.86;99715.25;4478142;32;20137;-80
2023/10/06 10:56:18;;;;;;;12.35;2.30;;;;;;;20.78;50.09;99720.16;4478812;32;20126;-81
2023/10/06 10:58:49;;;;;;;8.27;2.25;;;;;;;20.56;51.26;99716.50;4476837;32;20095;-81
2023/10/06 11:01:22;;;;;;;5.55;2.28;;;;;;;20.34;51.40;99712.84;4482786;32;20084;-80
2023/10/06 11:07:09;;;;;;;46.78;4.20;;;;;;;20.91;50.29;99706.25;4447090;32;20125;-81
2023/10/06 11:12:16;;;;;;;4.28;1.90;;;;;;;21.16;49.09;99698.00;4446621;32;20115;-77
2023/10/06 11:14:51;;;;;;;4.18;1.52;;;;;;;20.97;49.33;99700.19;4443699;32;20101;-81
2023/10/06 11:17:24;;;;;;;7.25;1.58;;;;;;;20.85;49.37;99701.66;4443704;32;20194;-81
2023/10/06 11:20:19;;;;;;;3.80;1.87;;;;;;;21.08;49.87;99701.59;4443399;32;20726;-82
2023/10/06 11:22:53;;;;;;;13.27;1.98;;;;;;;21.21;48.82;99695.59;4444889;32;20205;-82
2023/10/06 11:25:28;;;;;;;4.97;1.80;;;;;;;21.39;49.60;99696.09;4445261;32;20122;-82
2023/10/06 11:28:03;;;;;;;5.75;1.40;;;;;;;21.15;48.03;99691.00;4446000;32;20133;-81
2023/10/06 11:30:35;;;;;;;3.12;1.58;;;;;;;20.87;48.84;99694.28;4442234;32;20097;-81
2023/10/06 11:33:07;;;;;;;3.33;1.15;;;;;;;20.73;49.17;99691.41;4442775;32;20131;-81
2023/10/06 11:35:35;;;;;;;2.40;0.93;;;;;;;20.95;48.95;99696.03;4443047;32;20117;-82
2023/10/06 11:38:05;;;;;;;6.95;0.80;;;;;;;21.09;48.35;99697.91;4443615;32;20501;-81
2023/10/06 11:40:35;;;;;;;2.83;1.10;;;;;;;21.23;47.09;99694.41;4457400;32;20514;-81
2023/10/06 11:43:21;;;;;;;2.50;1.08;;;;;;;21.40;46.92;99689.72;4476693;31;20466;-81
2023/10/06 11:46:01;;;;;;;2.05;1.00;;;;;;;21.31;46.81;99695.34;4478391;32;20108;-81
2023/10/06 11:48:33;;;;;;;4.32;1.30;;;;;;;21.11;47.27;99685.22;4475067;32;20128;-80
2023/10/06 11:51:08;;;;;;;1.08;0.73;;;;;;;21.17;48.51;99678.34;4478545;32;20104;-80
2023/10/06 11:53:38;;;;;;;5.75;1.08;;;;;;;21.31;46.60;99680.16;4476078;31;20155;-81
2023/10/06 11:56:13;;;;;;;2.15;0.80;;;;;;;21.25;45.96;99678.25;4471556;32;20167;-81
2023/10/06 11:58:42;;;;;;;3.00;0.68;;;;;;;21.28;45.52;99669.88;4473691;32;20088;-81
2023/10/06 12:01:32;;;;;;;1.90;0.80;;;;;;;21.35;45.42;99675.31;4475614;31;20088;-80
2023/10/06 12:04:01;;;;;;;1.75;0.70;;;;;;;21.34;46.40;99677.12;4473156;32;20101;-81
2023/10/06 12:06:42;;;;;;;1.30;0.70;;;;;;;21.48;45.09;99669.31;4476213;32;20246;-81
2023/10/06 12:09:25;;;;;;;1.60;0.87;;;;;;;21.27;45.36;99657.56;4479856;32;20165;-80
2023/10/06 12:11:57;;;;;;;2.50;1.10;;;;;;;21.28;45.64;99645.88;4475241;32;20096;-80
2023/10/06 12:14:28;;;;;;;6.85;1.27;;;;;;;21.44;45.75;99640.34;4481998;31;20085;-80